Terminal Aerodrome Forecast
Issued by NWS

Current Version | Previous Version | Text Only | Print | Product List | Glossary On
Versions: 1 2 3 4 5 6 7 8 9 10 11 12 13 14 15
000
FTUS44 KBMX 100524
TAFANB
TAF
KANB 100524Z 1006/1106 29005KT P6SM FEW070
     FM101500 29011G18KT P6SM SKC
     FM110000 27003KT P6SM SKC=

USA.gov is the U.S. government's official web portal to all federal, state and local government web resources and services.